Time;durP1;ratioP1;P1;durP2;ratioP2;P2;SDS_P1;SDS_P2;PMS_P1;PMS_P2;Temp;Humidity;BMP_temperature;BMP_pressure;BME280_temperature;BME280_humidity;BME280_pressure;Samples;Min_cycle;Max_cycle;Signal;HPM_P1;HPM_P2
2021/11/14 00:00:57;;;;;;;17.20;8.32;;;;;;;16.56;74.01;101608.94;5088774;28;20616;-67
2021/11/14 00:03:27;;;;;;;13.80;6.80;;;;;;;16.61;73.99;101612.53;5087165;28;20044;-67
2021/11/14 00:05:55;;;;;;;11.95;7.63;;;;;;;16.62;73.92;101606.34;5088552;28;20500;-67
2021/11/14 00:08:23;;;;;;;13.45;9.10;;;;;;;16.63;73.61;101610.78;5087200;28;20044;-67
2021/11/14 00:10:52;;;;;;;15.00;7.75;;;;;;;16.61;73.43;101598.31;5088845;28;20048;-67
2021/11/14 00:13:20;;;;;;;12.40;7.43;;;;;;;16.59;73.48;101600.06;5089123;28;20047;-67
2021/11/14 00:15:48;;;;;;;12.95;7.47;;;;;;;16.56;73.55;101592.03;5087418;28;20106;-68
2021/11/14 00:18:16;;;;;;;13.20;7.95;;;;;;;16.55;73.45;101600.94;5087847;28;20511;-67
2021/11/14 00:20:46;;;;;;;13.88;7.63;;;;;;;16.55;73.24;101596.47;5087974;28;20070;-67
2021/11/14 00:23:14;;;;;;;11.27;6.93;;;;;;;16.53;73.18;101592.94;5088537;28;20123;-67
2021/11/14 00:25:42;;;;;;;12.98;7.38;;;;;;;16.51;72.93;101597.38;5088876;28;20040;-68
2021/11/14 00:28:10;;;;;;;11.90;7.70;;;;;;;16.50;72.74;101592.03;5087729;28;20487;-67
2021/11/14 00:30:43;;;;;;;12.07;7.32;;;;;;;16.48;72.59;101597.34;5110589;28;20123;-67
2021/11/14 00:33:12;;;;;;;12.85;8.30;;;;;;;16.46;72.36;101592.91;5113312;27;20100;-68
2021/11/14 00:35:40;;;;;;;12.27;7.25;;;;;;;16.43;72.15;101587.53;5111940;28;20123;-67
2021/11/14 00:38:10;;;;;;;12.95;7.35;;;;;;;16.35;72.19;101598.16;5111106;28;20131;-67
2021/11/14 00:40:39;;;;;;;11.15;6.93;;;;;;;16.21;72.68;101598.06;5090183;28;20047;-67
2021/11/14 00:43:08;;;;;;;14.27;7.90;;;;;;;16.16;73.12;101588.28;5094974;28;20430;-67
2021/11/14 00:45:39;;;;;;;16.98;6.97;;;;;;;16.11;73.38;101593.59;5101904;28;20105;-67
2021/11/14 00:48:07;;;;;;;14.07;6.90;;;;;;;16.10;73.91;101586.47;5110026;28;20571;-67
2021/11/14 00:50:38;;;;;;;12.60;7.13;;;;;;;16.11;74.24;101576.72;5112282;28;20101;-67
2021/11/14 00:53:06;;;;;;;13.68;7.90;;;;;;;16.14;74.01;101579.41;5110852;27;20479;-67
2021/11/14 00:55:36;;;;;;;15.48;8.95;;;;;;;16.20;73.80;101584.78;5095274;28;20040;-67
2021/11/14 00:58:04;;;;;;;13.15;7.97;;;;;;;16.18;73.53;101578.53;5092309;28;20119;-67
2021/11/14 01:00:33;;;;;;;19.65;8.30;;;;;;;16.13;74.00;101577.63;5091990;28;20040;-67
2021/11/14 01:03:02;;;;;;;12.88;8.25;;;;;;;16.14;74.05;101574.97;5091061;28;20214;-68
2021/11/14 01:05:31;;;;;;;13.13;7.30;;;;;;;16.14;74.15;101576.75;5091954;28;20048;-67
2021/11/14 01:07:59;;;;;;;11.20;6.93;;;;;;;16.14;74.19;101563.44;5090609;27;20040;-67
2021/11/14 01:10:33;;;;;;;11.57;7.88;;;;;;;16.20;74.07;101560.78;5091899;27;20051;-67
2021/11/14 01:13:03;;;;;;;;;;;;;;;16.21;73.94;101557.25;5074229;27;20048;-68
2021/11/14 01:15:33;;;;;;;12.35;8.27;;;;;;;16.22;73.82;101561.66;5090618;28;19935;-67
2021/11/14 01:18:01;;;;;;;13.32;7.97;;;;;;;16.18;73.74;101559.88;5091886;27;20051;-67
2021/11/14 01:20:31;;;;;;;12.20;7.68;;;;;;;16.20;73.75;101571.44;5093117;28;20131;-67
2021/11/14 01:23:02;;;;;;;11.90;7.30;;;;;;;16.17;73.74;101574.09;5102805;28;20043;-67
2021/11/14 01:25:29;;;;;;;12.77;6.55;;;;;;;16.12;74.20;101574.06;5102610;28;20484;-67
2021/11/14 01:27:58;;;;;;;12.77;8.05;;;;;;;16.13;74.30;101567.88;5091985;28;20040;-67
2021/11/14 01:30:30;;;;;;;12.77;7.15;;;;;;;16.18;74.29;101557.22;5108052;27;20148;-67
2021/11/14 01:32:59;;;;;;;13.55;8.48;;;;;;;16.19;74.29;101559.91;5105771;27;20177;-67
2021/11/14 01:35:27;;;;;;;15.57;7.47;;;;;;;16.19;74.31;101562.56;5090021;28;20392;-67
2021/11/14 01:37:56;;;;;;;11.65;7.45;;;;;;;16.18;74.24;101559.88;5090813;28;20113;-67
2021/11/14 01:40:27;;;;;;;12.93;7.97;;;;;;;16.15;74.36;101571.41;5090266;28;20043;-68
2021/11/14 01:42:55;;;;;;;14.55;7.55;;;;;;;16.15;74.38;101566.06;5090639;28;20093;-67
2021/11/14 01:45:24;;;;;;;12.25;7.63;;;;;;;16.16;74.29;101567.88;5071910;28;20499;-67
2021/11/14 01:47:54;;;;;;;13.30;8.57;;;;;;;16.16;74.29;101567.88;5089281;28;20048;-67
2021/11/14 01:50:23;;;;;;;11.88;7.63;;;;;;;16.20;74.18;101574.13;5090415;28;21715;-67
2021/11/14 01:52:54;;;;;;;12.25;7.80;;;;;;;16.17;73.81;101569.66;5089512;28;20036;-68
2021/11/14 01:55:23;;;;;;;16.15;7.28;;;;;;;16.13;73.69;101567.88;5071671;28;20036;-67
2021/11/14 01:57:51;;;;;;;11.88;6.70;;;;;;;16.08;73.94;101566.06;5089464;28;20544;-67
2021/11/14 02:00:22;;;;;;;14.07;9.13;;;;;;;16.05;74.11;101558.94;5090204;28;20032;-67
2021/11/14 02:02:51;;;;;;;12.73;7.53;;;;;;;16.05;74.25;101558.03;5089126;28;20089;-68
2021/11/14 02:05:24;;;;;;;14.38;8.70;;;;;;;16.06;74.09;101550.06;5089006;28;20040;-67
2021/11/14 02:07:52;;;;;;;13.30;7.55;;;;;;;16.07;74.08;101548.28;5079463;28;20047;-67
2021/11/14 02:10:21;;;;;;;12.23;7.95;;;;;;;16.06;73.97;101558.06;5090190;28;20039;-67
2021/11/14 02:12:49;;;;;;;14.20;7.93;;;;;;;16.06;73.99;101549.16;5103036;28;20143;-67
2021/11/14 02:15:17;;;;;;;15.18;8.40;;;;;;;16.04;74.07;101561.56;5105572;28;20040;-67
2021/11/14 02:17:45;;;;;;;13.05;7.63;;;;;;;16.05;74.02;101563.38;5089033;28;20554;-68
2021/11/14 02:20:17;;;;;;;12.57;6.88;;;;;;;16.05;74.30;101571.34;5089137;28;20044;-68
2021/11/14 02:22:45;;;;;;;13.57;6.85;;;;;;;16.06;74.33;101565.16;5105455;28;20040;-68
2021/11/14 02:25:14;;;;;;;11.23;7.00;;;;;;;16.09;74.63;101567.81;5088913;28;20515;-68
2021/11/14 02:27:43;;;;;;;17.63;7.45;;;;;;;16.12;74.57;101573.19;5090475;28;20058;-67
2021/11/14 02:30:13;;;;;;;13.25;6.95;;;;;;;16.13;74.71;101577.63;5088121;28;20036;-67
2021/11/14 02:32:41;;;;;;;13.02;7.18;;;;;;;16.12;74.79;101557.19;5089584;28;20043;-68
2021/11/14 02:35:11;;;;;;;15.70;7.70;;;;;;;16.16;74.86;101561.63;5089471;28;20040;-67
2021/11/14 02:37:41;;;;;;;13.50;7.40;;;;;;;16.21;74.82;101559.91;5086855;28;20065;-68
2021/11/14 02:40:11;;;;;;;11.10;7.65;;;;;;;16.25;74.78;101551.94;5082672;28;20048;-67
2021/11/14 02:42:39;;;;;;;13.63;7.80;;;;;;;16.29;74.67;101558.16;5090408;28;20043;-67
2021/11/14 02:45:08;;;;;;;14.52;8.23;;;;;;;16.30;74.54;101558.19;5090103;28;20128;-67
2021/11/14 02:47:37;;;;;;;11.77;7.18;;;;;;;16.31;74.47;101556.41;5107619;28;20047;-68
2021/11/14 02:50:07;;;;;;;13.43;7.90;;;;;;;16.31;74.51;101557.28;5109260;27;20092;-67
2021/11/14 02:52:35;;;;;;;13.65;7.68;;;;;;;16.29;74.35;101561.72;5100525;28;20032;-67
2021/11/14 02:55:06;;;;;;;12.82;7.82;;;;;;;16.29;74.64;101564.38;5107741;27;20039;-68
2021/11/14 02:57:34;;;;;;;14.80;7.65;;;;;;;16.23;74.90;101561.69;5092190;28;20123;-67
2021/11/14 03:00:02;;;;;;;10.45;6.88;;;;;;;16.23;74.94;101564.34;5088933;28;20110;-67
2021/11/14 03:02:29;;;;;;;13.85;7.40;;;;;;;16.23;75.13;101559.03;5089686;28;20411;-67
2021/11/14 03:04:57;;;;;;;11.43;7.18;;;;;;;16.27;75.14;101557.28;5088311;28;20135;-67
2021/11/14 03:07:25;;;;;;;11.15;7.38;;;;;;;16.27;75.03;101560.84;5099645;28;20047;-68
2021/11/14 03:09:52;;;;;;;12.93;7.57;;;;;;;16.29;75.12;101563.50;5099138;28;20036;-67
2021/11/14 03:12:22;;;;;;;14.00;7.93;;;;;;;16.35;75.28;101564.41;5090856;28;20119;-67
2021/11/14 03:14:50;;;;;;;14.38;7.78;;;;;;;16.37;75.08;101560.88;5090566;28;20105;-67
2021/11/14 03:17:17;;;;;;;12.15;7.38;;;;;;;16.40;75.00;101560.91;5093849;28;20060;-67
2021/11/14 03:19:45;;;;;;;11.55;6.80;;;;;;;16.46;75.04;101561.81;5089207;28;20036;-68
2021/11/14 03:22:13;;;;;;;12.77;8.10;;;;;;;16.49;74.81;101550.25;5121809;27;20419;-68
2021/11/14 03:24:40;;;;;;;16.98;7.70;;;;;;;16.50;74.67;101550.28;5090687;28;20040;-68
2021/11/14 03:27:08;;;;;;;11.88;7.80;;;;;;;16.48;74.65;101549.38;5105729;27;20484;-68
2021/11/14 03:29:38;;;;;;;15.23;7.15;;;;;;;16.53;74.51;101555.63;5110239;28;20085;-67
2021/11/14 03:32:06;;;;;;;13.70;7.47;;;;;;;16.51;74.49;101557.38;5089049;28;20081;-67
2021/11/14 03:34:34;;;;;;;11.70;8.10;;;;;;;16.51;74.29;101553.81;5109387;27;20035;-67
2021/11/14 03:37:12;;;;;;;13.35;7.95;;;;;;;16.54;74.23;101553.84;5101766;28;20043;-67
2021/11/14 03:39:39;;;;;;;11.27;7.38;;;;;;;16.48;74.44;101554.69;5087323;28;20119;-67
2021/11/14 03:42:07;;;;;;;13.25;7.30;;;;;;;16.47;74.57;101565.38;5088260;28;20371;-67
2021/11/14 03:44:35;;;;;;;10.40;7.00;;;;;;;16.47;74.55;101554.72;5072888;28;20044;-67
2021/11/14 03:47:06;;;;;;;13.88;6.68;;;;;;;16.38;74.70;101560.00;5119020;27;20050;-67
2021/11/14 03:49:35;;;;;;;13.10;6.85;;;;;;;16.34;74.91;101564.44;5085501;28;20108;-67
2021/11/14 03:52:07;;;;;;;13.50;6.43;;;;;;;16.34;74.98;101561.75;5087221;28;20044;-68
2021/11/14 03:54:35;;;;;;;11.02;8.00;;;;;;;16.34;74.96;101559.97;5088484;28;20127;-68
2021/11/14 03:57:03;;;;;;;12.98;7.63;;;;;;;16.34;74.73;101554.63;5089280;28;20097;-68
2021/11/14 03:59:30;;;;;;;12.27;6.82;;;;;;;16.27;74.81;101550.19;5088589;28;20044;-67
2021/11/14 04:01:58;;;;;;;10.90;6.60;;;;;;;16.25;75.07;101559.03;5088760;28;20457;-67
2021/11/14 04:04:28;;;;;;;15.93;8.32;;;;;;;16.26;75.07;101555.50;5088205;28;20052;-67
2021/11/14 04:06:56;;;;;;;12.05;6.93;;;;;;;16.26;75.11;101548.41;5087562;28;20040;-68
2021/11/14 04:09:23;;;;;;;13.65;6.85;;;;;;;16.28;74.98;101556.38;5088267;28;20123;-68
2021/11/14 04:11:51;;;;;;;14.40;7.90;;;;;;;16.29;74.93;101559.06;5088837;28;20101;-67
2021/11/14 04:14:19;;;;;;;12.40;7.35;;;;;;;16.24;74.97;101557.25;5088816;28;20074;-68
2021/11/14 04:16:47;;;;;;;11.75;6.75;;;;;;;16.23;74.91;101555.47;5087374;28;20436;-68
2021/11/14 04:19:14;;;;;;;12.52;7.30;;;;;;;16.27;74.97;101559.94;5087628;28;20113;-67
2021/11/14 04:21:44;;;;;;;9.00;5.95;;;;;;;16.24;74.87;101563.47;5088214;28;20568;-68
2021/11/14 04:24:11;;;;;;;9.70;6.25;;;;;;;16.27;74.78;101565.28;5087910;28;20044;-68
2021/11/14 04:26:39;;;;;;;11.65;7.20;;;;;;;16.14;74.79;101560.75;5087578;28;20086;-68
2021/11/14 04:29:07;;;;;;;13.57;9.60;;;;;;;16.14;75.14;101568.75;5086489;28;20044;-67
2021/11/14 04:31:34;;;;;;;14.10;9.95;;;;;;;16.14;75.29;101576.75;5088589;28;20067;-67
2021/11/14 04:34:02;;;;;;;14.27;8.75;;;;;;;16.17;75.22;101566.09;5088905;28;20048;-67
2021/11/14 04:36:30;;;;;;;14.57;7.50;;;;;;;16.12;75.38;101566.06;5086853;28;20097;-67
2021/11/14 04:39:00;;;;;;;12.75;8.60;;;;;;;16.12;75.39;101557.19;5086262;28;20040;-67
2021/11/14 04:41:27;;;;;;;10.88;7.18;;;;;;;16.13;75.57;101554.53;5088314;28;20068;-67
2021/11/14 04:43:55;;;;;;;13.93;8.63;;;;;;;16.22;75.37;101561.66;5095502;28;20101;-67
2021/11/14 04:46:22;;;;;;;13.20;8.13;;;;;;;16.26;75.13;101567.03;5102556;28;20068;-67
2021/11/14 04:48:50;;;;;;;10.27;6.72;;;;;;;16.30;74.85;101560.84;5087590;28;20121;-67
2021/11/14 04:51:18;;;;;;;15.57;7.55;;;;;;;16.28;74.61;101564.38;5088117;28;20052;-68
2021/11/14 04:53:46;;;;;;;11.13;7.88;;;;;;;16.25;74.85;101564.38;5087724;28;20499;-67
2021/11/14 04:56:16;;;;;;;14.27;7.43;;;;;;;16.23;74.79;101572.34;5085742;28;20085;-68
2021/11/14 04:58:44;;;;;;;10.95;7.28;;;;;;;16.24;74.90;101571.47;5088558;28;20551;-68
2021/11/14 05:01:12;;;;;;;9.77;5.95;;;;;;;16.23;74.87;101576.78;5098773;28;20132;-69
2021/11/14 05:03:40;;;;;;;15.80;8.18;;;;;;;16.27;75.05;101584.81;5088562;28;20060;-67
2021/11/14 05:06:09;;;;;;;10.65;6.57;;;;;;;16.28;75.05;101578.59;5088344;28;20515;-67
2021/11/14 05:08:38;;;;;;;11.32;7.28;;;;;;;16.29;75.19;101579.47;5088336;28;20063;-67
2021/11/14 05:11:06;;;;;;;13.07;7.65;;;;;;;16.30;75.11;101587.50;5087308;28;20462;-67
2021/11/14 05:13:35;;;;;;;14.63;7.88;;;;;;;16.29;75.06;101596.34;5087980;28;20040;-67
2021/11/14 05:16:04;;;;;;;17.38;8.48;;;;;;;16.18;75.10;101591.84;5088296;28;20089;-67
2021/11/14 05:18:31;;;;;;;11.32;6.63;;;;;;;16.16;75.30;101580.28;5092499;28;20044;-67
2021/11/14 05:20:59;;;;;;;12.30;6.70;;;;;;;16.12;75.25;101581.16;5088704;28;20073;-68
2021/11/14 05:23:27;;;;;;;12.75;7.50;;;;;;;16.12;75.42;101589.16;5089989;28;20036;-67
2021/11/14 05:25:54;;;;;;;14.60;8.05;;;;;;;16.13;75.42;101599.84;5089949;28;20044;-67
2021/11/14 05:28:22;;;;;;;15.02;7.60;;;;;;;16.13;75.55;101601.59;5089859;28;20571;-68
2021/11/14 05:30:51;;;;;;;14.00;7.97;;;;;;;16.16;75.56;101596.28;5091290;28;20450;-67
2021/11/14 05:33:19;;;;;;;12.20;7.97;;;;;;;16.17;75.58;101604.28;5089406;28;20120;-68
2021/11/14 05:35:46;;;;;;;11.30;7.75;;;;;;;16.20;75.59;101612.31;5091285;28;20044;-68
2021/11/14 05:38:15;;;;;;;11.90;8.00;;;;;;;16.23;75.65;101616.75;5086768;28;20068;-68
2021/11/14 05:40:44;;;;;;;15.52;7.88;;;;;;;16.21;75.54;101611.41;5090476;28;20047;-68
2021/11/14 05:43:12;;;;;;;13.75;8.38;;;;;;;16.24;75.63;101611.44;5091903;28;20043;-69
2021/11/14 05:45:40;;;;;;;13.27;7.60;;;;;;;16.21;75.72;101615.88;5089593;28;20086;-67
2021/11/14 05:48:09;;;;;;;16.00;8.02;;;;;;;16.21;75.93;101606.06;5086293;28;20167;-68
2021/11/14 05:50:37;;;;;;;13.15;7.53;;;;;;;16.23;75.91;101606.09;5081667;28;20551;-67
2021/11/14 05:53:05;;;;;;;10.68;7.03;;;;;;;16.22;75.78;101614.97;5089383;28;20040;-67
2021/11/14 05:55:34;;;;;;;12.15;8.13;;;;;;;16.36;75.52;101613.28;5088820;28;20074;-67
2021/11/14 05:58:03;;;;;;;11.40;7.03;;;;;;;16.41;75.39;101624.84;5090278;28;21623;-67
2021/11/14 06:00:43;;;;;;;12.27;7.20;;;;;;;16.48;75.39;101628.44;5088165;28;20036;-67
2021/11/14 06:03:23;;;;;;;12.38;7.75;;;;;;;16.55;75.24;101628.47;5089835;28;20044;-67
2021/11/14 06:05:52;;;;;;;17.27;9.57;;;;;;;16.44;75.68;101629.31;5084884;28;20502;-68
2021/11/14 06:08:21;;;;;;;15.93;9.90;;;;;;;16.49;75.97;101630.22;5090549;28;20036;-67
2021/11/14 06:10:50;;;;;;;14.57;8.23;;;;;;;16.55;76.08;101636.47;5090048;28;20060;-67
2021/11/14 06:13:20;;;;;;;13.75;7.20;;;;;;;16.60;76.00;101641.88;5089607;28;20040;-67
2021/11/14 06:15:48;;;;;;;10.50;7.28;;;;;;;16.63;75.88;101634.78;5089503;28;20042;-67
2021/11/14 06:18:17;;;;;;;13.20;7.35;;;;;;;16.67;75.89;101636.56;5089681;28;20102;-67
2021/11/14 06:20:45;;;;;;;11.23;7.32;;;;;;;16.70;75.86;101644.59;5089815;28;20094;-68
2021/11/14 06:23:14;;;;;;;13.45;6.82;;;;;;;16.74;75.76;101643.72;5084078;28;20047;-67
2021/11/14 06:25:42;;;;;;;13.55;7.60;;;;;;;16.78;75.81;101641.97;5088870;28;20036;-67
2021/11/14 06:28:10;;;;;;;10.80;6.93;;;;;;;16.82;75.70;101642.84;5089064;28;20044;-67
2021/11/14 06:30:38;;;;;;;11.50;6.32;;;;;;;16.89;75.69;101644.66;5103735;28;20071;-67
2021/11/14 06:33:07;;;;;;;13.57;8.88;;;;;;;16.95;75.71;101645.56;5101887;28;20492;-67
2021/11/14 06:35:36;;;;;;;13.73;7.97;;;;;;;17.03;75.79;101654.50;5081541;28;20212;-67
2021/11/14 06:38:05;;;;;;;12.15;7.65;;;;;;;17.08;75.83;101660.75;5088065;28;20044;-67
2021/11/14 06:40:32;;;;;;;13.90;8.32;;;;;;;17.14;75.89;101658.09;5077835;28;21962;-67
2021/11/14 06:43:00;;;;;;;13.02;8.10;;;;;;;17.19;75.81;101658.13;5077903;28;20095;-67
2021/11/14 06:45:28;;;;;;;10.70;6.45;;;;;;;17.23;76.01;101672.34;5089456;28;20074;-67
2021/11/14 06:47:56;;;;;;;11.30;6.93;;;;;;;17.23;75.92;101665.25;5088456;28;20110;-67
2021/11/14 06:50:23;;;;;;;12.43;7.18;;;;;;;17.28;76.11;101665.25;5090365;28;20135;-67
2021/11/14 06:52:53;;;;;;;12.43;7.03;;;;;;;17.33;76.05;101655.47;5091075;28;20036;-68
2021/11/14 06:55:22;;;;;;;17.00;6.88;;;;;;;17.39;76.24;101653.69;5091541;28;20135;-67
2021/11/14 06:57:50;;;;;;;12.93;7.03;;;;;;;17.45;76.31;101656.41;5094074;28;20064;-67
2021/11/14 07:00:21;;;;;;;14.93;9.30;;;;;;;17.53;76.40;101649.28;5086582;28;20044;-67
2021/11/14 07:02:49;;;;;;;17.20;11.15;;;;;;;17.61;76.58;101657.34;5088094;28;20089;-67
2021/11/14 07:05:17;;;;;;;19.35;11.00;;;;;;;17.66;76.78;101660.00;5087317;28;20048;-67
2021/11/14 07:07:45;;;;;;;16.83;10.65;;;;;;;17.72;76.80;101665.38;5070619;28;20041;-67
2021/11/14 07:10:20;;;;;;;21.45;11.55;;;;;;;17.77;76.74;101667.16;5087147;28;20063;-68
2021/11/14 07:12:48;;;;;;;17.38;9.55;;;;;;;17.82;76.75;101670.72;5087940;28;20044;-67
2021/11/14 07:15:17;;;;;;;14.82;8.75;;;;;;;17.87;76.69;101670.72;5089804;28;20052;-67
2021/11/14 07:17:45;;;;;;;16.00;9.32;;;;;;;17.89;76.52;101674.28;5087860;28;20119;-67
2021/11/14 07:20:15;;;;;;;19.02;8.13;;;;;;;17.94;76.50;101677.84;5089440;28;20439;-67
2021/11/14 07:22:44;;;;;;;12.10;7.45;;;;;;;17.98;76.46;101668.06;5082083;28;20044;-67
2021/11/14 07:25:16;;;;;;;15.30;7.15;;;;;;;18.03;76.52;101667.16;5086152;28;20055;-67
2021/11/14 07:27:49;;;;;;;13.95;7.68;;;;;;;18.11;76.55;101672.50;5086568;28;20052;-67
2021/11/14 07:30:18;;;;;;;13.38;7.53;;;;;;;18.13;76.62;101668.91;5083411;28;20163;-67
2021/11/14 07:32:46;;;;;;;18.48;8.57;;;;;;;18.16;76.54;101666.25;5087868;28;20043;-67
2021/11/14 07:35:16;;;;;;;12.35;7.57;;;;;;;18.19;76.61;101663.56;5088330;28;20039;-68
2021/11/14 07:37:44;;;;;;;14.77;8.77;;;;;;;18.21;76.68;101667.13;5087500;28;20048;-67
2021/11/14 07:40:14;;;;;;;10.82;7.85;;;;;;;18.31;76.84;101668.03;5088488;28;20063;-66
2021/11/14 07:42:44;;;;;;;13.85;7.22;;;;;;;18.40;76.72;101661.75;5088867;28;20062;-67
2021/11/14 07:45:15;;;;;;;13.20;7.80;;;;;;;18.51;76.58;101666.19;5088818;28;20090;-67
2021/11/14 07:47:43;;;;;;;11.65;8.00;;;;;;;18.64;76.57;101664.41;5091710;27;20403;-68
2021/11/14 07:50:13;;;;;;;13.13;7.78;;;;;;;18.80;76.51;101658.09;5088274;28;20082;-67
2021/11/14 07:52:41;;;;;;;15.55;7.55;;;;;;;18.98;76.48;101665.16;5085966;28;20071;-66
2021/11/14 07:55:09;;;;;;;13.25;8.38;;;;;;;19.16;75.82;101667.78;5086964;28;20052;-67
2021/11/14 07:57:42;;;;;;;13.88;7.47;;;;;;;19.26;74.47;101673.94;5087061;28;20506;-67
2021/11/14 08:00:15;;;;;;;13.15;7.57;;;;;;;19.36;73.92;101676.56;5098515;28;20059;-66
2021/11/14 08:02:42;;;;;;;9.57;7.10;;;;;;;19.46;73.46;101677.44;5090863;28;20376;-68
2021/11/14 08:05:12;;;;;;;10.20;6.05;;;;;;;19.64;73.10;101677.31;5085213;28;20047;-66
2021/11/14 08:07:40;;;;;;;10.45;6.25;;;;;;;19.96;73.15;101673.50;5087934;27;20044;-66
2021/11/14 08:10:09;;;;;;;11.90;5.55;;;;;;;20.29;72.63;101666.03;5084246;28;20458;-67
2021/11/14 08:12:37;;;;;;;11.48;5.85;;;;;;;20.61;71.85;101651.44;5087214;28;20544;-67
2021/11/14 08:15:06;;;;;;;10.98;5.35;;;;;;;20.94;71.27;101655.50;5087197;27;20068;-67
2021/11/14 08:17:35;;;;;;;8.77;4.03;;;;;;;21.31;70.19;101650.56;5086714;27;20032;-67
2021/11/14 08:20:04;;;;;;;8.77;4.47;;;;;;;21.66;69.61;101645.53;5084932;27;20051;-66
2021/11/14 08:22:32;;;;;;;8.07;4.05;;;;;;;22.03;68.60;101642.28;5087211;27;20048;-67
2021/11/14 08:25:01;;;;;;;8.48;5.03;;;;;;;22.21;67.44;101642.84;5085151;28;20040;-67
2021/11/14 08:27:31;;;;;;;10.57;5.38;;;;;;;22.30;66.40;101643.59;5080673;27;20044;-67
2021/11/14 08:30:00;;;;;;;11.57;5.03;;;;;;;22.37;65.54;101639.88;5085387;27;20436;-66
2021/11/14 08:32:28;;;;;;;8.50;4.50;;;;;;;22.37;64.38;101637.19;5071808;28;20060;-67
2021/11/14 08:34:58;;;;;;;12.88;6.47;;;;;;;22.25;62.79;101631.09;5083643;28;20040;-67
2021/11/14 08:37:26;;;;;;;12.80;6.00;;;;;;;22.09;62.68;101629.59;5080253;28;20118;-67
2021/11/14 08:39:55;;;;;;;11.00;5.25;;;;;;;22.00;62.71;101628.88;5083530;28;20451;-67
2021/11/14 08:42:24;;;;;;;14.85;6.80;;;;;;;21.79;61.32;101636.34;5083597;28;20058;-67
2021/11/14 08:44:52;;;;;;;15.32;6.93;;;;;;;21.60;61.33;101637.56;5084732;28;20039;-67
2021/11/14 08:47:19;;;;;;;16.88;7.68;;;;;;;21.50;61.86;101632.38;5085915;28;20117;-66
2021/11/14 08:49:47;;;;;;;13.95;6.72;;;;;;;21.44;61.89;101630.66;5085852;28;20512;-66
2021/11/14 08:52:16;;;;;;;12.68;6.78;;;;;;;21.45;62.38;101635.13;5086983;28;20040;-67
2021/11/14 08:54:44;;;;;;;11.10;5.03;;;;;;;21.47;62.27;101623.44;5087615;28;20109;-67
2021/11/14 08:57:17;;;;;;;9.70;5.35;;;;;;;21.52;61.85;101622.50;5087938;28;20051;-66
2021/11/14 08:59:46;;;;;;;10.23;5.25;;;;;;;21.51;61.57;101618.03;5089835;28;20055;-67
2021/11/14 09:02:15;;;;;;;7.45;5.25;;;;;;;21.50;61.83;101627.88;5087897;28;20044;-67
2021/11/14 09:04:43;;;;;;;9.32;4.80;;;;;;;21.48;61.43;101619.84;5090089;28;20044;-69
2021/11/14 09:07:11;;;;;;;14.27;6.70;;;;;;;21.43;61.56;101616.34;5090352;28;20043;-67
2021/11/14 09:09:41;;;;;;;14.93;6.43;;;;;;;21.48;61.94;101614.47;5087567;28;20033;-67
2021/11/14 09:12:09;;;;;;;8.55;5.25;;;;;;;21.56;62.07;101613.47;5088689;28;20503;-67
2021/11/14 09:14:37;;;;;;;9.55;5.50;;;;;;;21.67;61.64;101619.53;5089511;28;20040;-67
2021/11/14 09:17:05;;;;;;;9.70;5.07;;;;;;;21.76;60.80;101617.59;5088766;28;20055;-67
2021/11/14 09:19:34;;;;;;;8.75;4.88;;;;;;;21.86;61.10;101616.50;5086728;28;20128;-67
2021/11/14 09:22:02;;;;;;;9.88;4.40;;;;;;;21.98;60.58;101625.34;5090259;28;20052;-67
2021/11/14 09:24:30;;;;;;;8.43;4.80;;;;;;;22.04;60.41;101609.97;5082150;28;20450;-67
2021/11/14 09:26:59;;;;;;;9.13;4.53;;;;;;;22.16;60.43;101617.81;5089657;28;20044;-67
2021/11/14 09:29:27;;;;;;;7.28;4.18;;;;;;;22.23;60.21;101611.41;5088754;28;20056;-67
2021/11/14 09:31:55;;;;;;;8.48;5.20;;;;;;;22.36;60.03;101604.00;5087819;28;20450;-67
2021/11/14 09:34:22;;;;;;;10.10;6.15;;;;;;;22.48;59.63;101601.06;5091137;28;20040;-67
2021/11/14 09:36:50;;;;;;;17.45;8.77;;;;;;;22.51;59.00;101590.22;5087086;28;20056;-67
2021/11/14 09:39:18;;;;;;;12.35;6.70;;;;;;;22.59;59.09;101593.63;5090631;28;20402;-67
2021/11/14 09:41:48;;;;;;;8.80;4.53;;;;;;;22.66;58.70;101589.00;5091131;28;20113;-67
2021/11/14 09:44:20;;;;;;;7.07;4.05;;;;;;;22.73;58.26;101585.31;5090144;28;20059;-67
2021/11/14 09:46:51;;;;;;;8.20;4.75;;;;;;;22.70;58.02;101574.59;5090039;28;20427;-67
2021/11/14 09:49:22;;;;;;;9.00;4.97;;;;;;;22.61;57.77;101574.78;5090580;28;20055;-67
2021/11/14 09:51:52;;;;;;;7.65;4.78;;;;;;;22.58;57.76;101570.31;5073095;28;20126;-67
2021/11/14 09:54:21;;;;;;;7.00;4.63;;;;;;;22.53;57.50;101565.97;5090159;28;20043;-67
2021/11/14 09:56:49;;;;;;;9.77;4.70;;;;;;;22.58;58.05;101572.13;5105645;28;20380;-67
2021/11/14 09:59:19;;;;;;;11.35;5.57;;;;;;;22.62;57.90;101565.78;5090955;28;20377;-67
2021/11/14 10:01:49;;;;;;;9.60;5.93;;;;;;;22.71;58.02;101573.66;5090243;28;20101;-67
2021/11/14 10:04:17;;;;;;;11.07;5.15;;;;;;;22.65;57.52;101568.38;5069292;28;20068;-67
2021/11/14 10:06:57;;;;;;;11.70;5.10;;;;;;;22.65;57.64;101568.38;5070484;28;20397;-68
2021/11/14 10:09:38;;;;;;;8.63;5.07;;;;;;;22.68;57.65;101568.34;5071137;28;20051;-67
2021/11/14 10:12:14;;;;;;;8.93;4.57;;;;;;;22.71;57.59;101565.56;5085510;28;20377;-67
2021/11/14 10:14:45;;;;;;;6.80;3.83;;;;;;;22.70;57.70;101569.19;5070218;28;20381;-67
2021/11/14 10:17:19;;;;;;;11.23;4.60;;;;;;;22.65;57.56;101566.59;5076763;28;20127;-68
2021/11/14 10:20:03;;;;;;;8.25;4.57;;;;;;;22.67;57.69;101553.09;5089439;28;20059;-68
2021/11/14 10:22:31;;;;;;;9.82;4.90;;;;;;;22.82;57.67;101550.13;5090098;28;20040;-68
2021/11/14 10:25:00;;;;;;;7.07;4.57;;;;;;;22.83;57.82;101538.44;5088550;28;20123;-67
2021/11/14 10:27:29;;;;;;;8.90;4.90;;;;;;;22.90;57.96;101533.78;5087323;28;20521;-66
2021/11/14 10:29:58;;;;;;;9.27;4.40;;;;;;;22.91;57.81;101535.53;5088282;28;20060;-67
2021/11/14 10:32:29;;;;;;;8.70;4.95;;;;;;;22.75;57.48;101536.81;5085442;28;20381;-67
2021/11/14 10:35:02;;;;;;;7.82;4.90;;;;;;;22.62;57.79;101533.47;5085322;28;20127;-66
2021/11/14 10:37:30;;;;;;;10.27;4.57;;;;;;;22.54;58.08;101532.75;5079858;28;20055;-67
2021/11/14 10:40:01;;;;;;;6.82;4.80;;;;;;;22.57;58.28;101525.50;5088985;28;20040;-67
2021/11/14 10:42:32;;;;;;;6.97;3.85;;;;;;;22.62;58.25;101517.31;5090151;28;20090;-67
2021/11/14 10:45:06;;;;;;;6.18;4.20;;;;;;;22.63;58.22;101514.59;5105419;28;20055;-67
2021/11/14 10:47:34;;;;;;;10.52;4.85;;;;;;;22.62;58.38;101520.03;5088835;28;20051;-67
2021/11/14 10:50:06;;;;;;;8.15;4.38;;;;;;;22.61;58.39;101508.38;5089876;28;20093;-66
2021/11/14 10:52:36;;;;;;;8.68;4.90;;;;;;;22.67;58.37;101510.03;5089473;28;20125;-67
2021/11/14 10:55:08;;;;;;;9.80;4.65;;;;;;;22.71;58.41;101502.78;5088108;28;20113;-67
2021/11/14 10:57:37;;;;;;;7.00;4.47;;;;;;;22.76;58.35;101499.09;5088714;28;20043;-67
2021/11/14 11:00:09;;;;;;;11.30;4.63;;;;;;;22.78;57.88;101501.72;5088082;28;20048;-67
2021/11/14 11:02:41;;;;;;;8.85;4.50;;;;;;;22.75;58.02;101501.81;5086881;28;20411;-67
2021/11/14 11:05:12;;;;;;;7.80;4.70;;;;;;;22.79;57.94;101506.19;5088241;28;20109;-66
2021/11/14 11:07:42;;;;;;;7.50;4.57;;;;;;;22.66;57.31;101492.09;5103985;28;20051;-67
2021/11/14 11:10:11;;;;;;;8.82;4.07;;;;;;;22.51;57.61;101504.09;5097530;28;20495;-67
2021/11/14 11:12:38;;;;;;;7.45;4.55;;;;;;;22.48;57.77;101496.09;5091486;27;20051;-67
2021/11/14 11:15:10;;;;;;;9.20;4.35;;;;;;;22.54;57.88;101495.06;5070485;28;20055;-67
2021/11/14 11:17:48;;;;;;;7.70;4.00;;;;;;;22.64;57.80;101492.13;5092498;28;20168;-67
2021/11/14 11:20:19;;;;;;;9.30;4.30;;;;;;;22.68;57.71;101492.97;5089491;28;20040;-67
2021/11/14 11:22:52;;;;;;;7.60;4.43;;;;;;;22.62;57.62;101493.09;5088154;28;20133;-67
2021/11/14 11:25:36;;;;;;;8.18;4.68;;;;;;;22.66;57.62;101498.38;5087545;28;20055;-67
2021/11/14 11:28:06;;;;;;;9.10;5.18;;;;;;;22.59;57.69;101490.47;5089015;28;20048;-67